createdAt,value
2022-09-06T00:01:14.305Z,7.60
2022-09-06T00:21:14.019Z,4.00
2022-09-06T00:41:13.735Z,4.70
2022-09-06T01:01:13.539Z,3.50
2022-09-06T01:21:13.156Z,5.80
2022-09-06T01:41:12.872Z,4.40
2022-09-06T02:01:12.626Z,5.70
2022-09-06T02:21:12.363Z,6.00
2022-09-06T02:41:12.069Z,4.60
2022-09-06T03:01:11.843Z,5.10
2022-09-06T03:21:11.563Z,6.10
2022-09-06T03:41:11.267Z,6.30
2022-09-06T04:01:11.086Z,5.90
2022-09-06T04:21:10.773Z,5.30
2022-09-06T04:41:10.475Z,6.50
2022-09-06T05:01:10.310Z,5.60
2022-09-06T05:21:09.992Z,5.40
2022-09-06T05:41:09.726Z,4.30
2022-09-06T06:01:09.448Z,3.90
2022-09-06T06:21:09.313Z,5.20
2022-09-06T06:41:08.941Z,2.70
2022-09-06T07:01:08.650Z,4.50
2022-09-06T07:41:08.027Z,4.00
2022-09-06T08:01:07.787Z,1.90
2022-09-06T08:21:12.036Z,3.00
2022-09-06T08:41:07.209Z,3.70
2022-09-06T09:01:06.990Z,3.60
2022-09-06T09:21:06.654Z,3.40
2022-09-06T09:41:06.384Z,3.00
2022-09-06T10:01:06.148Z,3.70
2022-09-06T10:21:05.811Z,4.10
2022-09-06T10:41:05.647Z,2.60
2022-09-06T11:01:05.276Z,4.60
2022-09-06T11:21:05.066Z,3.30
2022-09-06T11:41:08.113Z,3.90
2022-09-06T12:01:04.545Z,3.70
2022-09-06T12:21:04.336Z,4.80
2022-09-06T12:41:04.081Z,3.10
2022-09-06T13:01:03.686Z,2.30
2022-09-06T13:21:03.437Z,3.20
2022-09-06T13:41:14.622Z,3.70
2022-09-06T14:01:03.167Z,2.90
2022-09-06T14:21:02.676Z,5.00
2022-09-06T14:41:02.314Z,4.90
2022-09-06T15:01:02.087Z,5.40
2022-09-06T15:21:01.753Z,5.90
2022-09-06T15:41:04.013Z,5.20
2022-09-06T16:01:01.374Z,4.70
2022-09-06T16:21:00.941Z,6.10
2022-09-06T16:41:00.692Z,6.40
2022-09-06T17:01:00.440Z,5.10
2022-09-06T17:21:00.127Z,6.00
2022-09-06T17:40:59.871Z,5.20
2022-09-06T18:00:59.653Z,4.80
2022-09-06T18:20:59.404Z,6.40
2022-09-06T18:40:59.009Z,6.50
2022-09-06T19:00:58.824Z,4.90
2022-09-06T19:20:58.679Z,7.00
2022-09-06T19:40:58.173Z,5.40
2022-09-06T20:00:57.999Z,6.40
2022-09-06T20:20:57.672Z,7.30
2022-09-06T20:40:57.690Z,6.10
2022-09-06T21:00:58.173Z,7.40
2022-09-06T21:20:58.300Z,7.50
2022-09-06T21:40:57.312Z,5.70
2022-09-06T22:00:56.350Z,7.20
2022-09-06T22:20:55.986Z,7.80
2022-09-06T22:40:55.707Z,6.10
2022-09-06T23:00:55.501Z,5.90
2022-09-06T23:20:55.163Z,8.80
2022-09-06T23:40:54.873Z,8.10
